sensor_id;sensor_type;location;lat;lon;timestamp;temperature;humidity
42333;DHT22;27984;51.476;5.702;2022-10-16T00:00:39;12.80;99.90
42333;DHT22;27984;51.476;5.702;2022-10-16T00:03:10;12.80;99.90
42333;DHT22;27984;51.476;5.702;2022-10-16T00:05:43;12.80;99.90
42333;DHT22;27984;51.476;5.702;2022-10-16T00:08:11;12.80;99.90
42333;DHT22;27984;51.476;5.702;2022-10-16T00:10:37;12.80;99.90
42333;DHT22;27984;51.476;5.702;2022-10-16T00:13:04;12.70;99.90
42333;DHT22;27984;51.476;5.702;2022-10-16T00:15:32;12.70;99.90
42333;DHT22;27984;51.476;5.702;2022-10-16T00:17:58;12.70;99.90
42333;DHT22;27984;51.476;5.702;2022-10-16T00:20:26;12.80;99.90
42333;DHT22;27984;51.476;5.702;2022-10-16T00:22:52;12.70;99.90
42333;DHT22;27984;51.476;5.702;2022-10-16T00:25:18;12.70;99.90
42333;DHT22;27984;51.476;5.702;2022-10-16T00:27:43;12.70;99.90
42333;DHT22;27984;51.476;5.702;2022-10-16T00:30:11;12.70;99.90
42333;DHT22;27984;51.476;5.702;2022-10-16T00:32:37;12.70;99.90
42333;DHT22;27984;51.476;5.702;2022-10-16T00:35:03;12.70;99.90
42333;DHT22;27984;51.476;5.702;2022-10-16T00:37:29;12.60;99.90
42333;DHT22;27984;51.476;5.702;2022-10-16T00:39:54;12.60;99.90
42333;DHT22;27984;51.476;5.702;2022-10-16T00:42:23;12.50;99.90
42333;DHT22;27984;51.476;5.702;2022-10-16T00:44:57;12.50;99.90
42333;DHT22;27984;51.476;5.702;2022-10-16T00:47:43;12.40;99.90
42333;DHT22;27984;51.476;5.702;2022-10-16T00:50:33;12.40;99.90
42333;DHT22;27984;51.476;5.702;2022-10-16T00:53:00;12.40;99.90
42333;DHT22;27984;51.476;5.702;2022-10-16T00:55:27;12.40;99.90
42333;DHT22;27984;51.476;5.702;2022-10-16T00:57:56;12.30;99.90
42333;DHT22;27984;51.476;5.702;2022-10-16T01:00:26;12.40;99.90
42333;DHT22;27984;51.476;5.702;2022-10-16T01:02:58;12.30;99.90
42333;DHT22;27984;51.476;5.702;2022-10-16T01:05:29;12.30;99.90
42333;DHT22;27984;51.476;5.702;2022-10-16T01:08:15;12.30;99.90
42333;DHT22;27984;51.476;5.702;2022-10-16T01:11:00;12.30;99.90
42333;DHT22;27984;51.476;5.702;2022-10-16T01:13:42;12.30;99.90
42333;DHT22;27984;51.476;5.702;2022-10-16T01:18:57;12.30;99.90
42333;DHT22;27984;51.476;5.702;2022-10-16T01:21:35;12.20;99.90
42333;DHT22;27984;51.476;5.702;2022-10-16T01:24:17;12.20;99.90
42333;DHT22;27984;51.476;5.702;2022-10-16T01:29:35;12.10;99.90
42333;DHT22;27984;51.476;5.702;2022-10-16T01:32:31;12.10;99.90
42333;DHT22;27984;51.476;5.702;2022-10-16T01:38:25;12.00;99.90
42333;DHT22;27984;51.476;5.702;2022-10-16T01:40:26;11.90;99.90
42333;DHT22;27984;51.476;5.702;2022-10-16T01:42:59;12.00;99.90
42333;DHT22;27984;51.476;5.702;2022-10-16T01:45:28;11.90;99.90
42333;DHT22;27984;51.476;5.702;2022-10-16T01:47:57;11.90;99.90
42333;DHT22;27984;51.476;5.702;2022-10-16T01:50:24;12.00;99.90
42333;DHT22;27984;51.476;5.702;2022-10-16T01:52:56;11.80;99.90
42333;DHT22;27984;51.476;5.702;2022-10-16T01:55:27;11.90;99.90
42333;DHT22;27984;51.476;5.702;2022-10-16T01:57:55;11.90;99.90
42333;DHT22;27984;51.476;5.702;2022-10-16T02:00:22;11.90;99.90
42333;DHT22;27984;51.476;5.702;2022-10-16T02:02:51;11.90;99.90
42333;DHT22;27984;51.476;5.702;2022-10-16T02:05:42;11.80;99.90
42333;DHT22;27984;51.476;5.702;2022-10-16T02:08:09;11.90;99.90
42333;DHT22;27984;51.476;5.702;2022-10-16T02:10:35;11.90;99.90
42333;DHT22;27984;51.476;5.702;2022-10-16T02:13:10;11.90;99.90
42333;DHT22;27984;51.476;5.702;2022-10-16T02:15:37;12.00;99.90
42333;DHT22;27984;51.476;5.702;2022-10-16T02:18:07;12.10;99.90
42333;DHT22;27984;51.476;5.702;2022-10-16T02:20:57;12.10;99.90
42333;DHT22;27984;51.476;5.702;2022-10-16T02:25:56;12.20;99.90
42333;DHT22;27984;51.476;5.702;2022-10-16T02:28:34;12.20;99.90
42333;DHT22;27984;51.476;5.702;2022-10-16T02:31:05;12.10;99.90
42333;DHT22;27984;51.476;5.702;2022-10-16T02:33:35;12.00;99.90
42333;DHT22;27984;51.476;5.702;2022-10-16T02:36:02;12.00;99.90
42333;DHT22;27984;51.476;5.702;2022-10-16T02:38:29;12.00;99.90
42333;DHT22;27984;51.476;5.702;2022-10-16T02:40:56;12.00;99.90
42333;DHT22;27984;51.476;5.702;2022-10-16T02:43:21;12.00;99.90
42333;DHT22;27984;51.476;5.702;2022-10-16T02:45:47;11.90;99.90
42333;DHT22;27984;51.476;5.702;2022-10-16T02:48:15;11.90;99.90
42333;DHT22;27984;51.476;5.702;2022-10-16T02:50:43;11.90;99.90
42333;DHT22;27984;51.476;5.702;2022-10-16T02:53:09;11.80;99.90
42333;DHT22;27984;51.476;5.702;2022-10-16T02:55:37;11.90;99.90
42333;DHT22;27984;51.476;5.702;2022-10-16T02:58:03;11.90;99.90
42333;DHT22;27984;51.476;5.702;2022-10-16T03:00:29;11.80;99.90
42333;DHT22;27984;51.476;5.702;2022-10-16T03:02:54;11.90;99.90
42333;DHT22;27984;51.476;5.702;2022-10-16T03:05:23;11.80;99.90
42333;DHT22;27984;51.476;5.702;2022-10-16T03:07:49;11.80;99.90
42333;DHT22;27984;51.476;5.702;2022-10-16T03:10:15;11.80;99.90
42333;DHT22;27984;51.476;5.702;2022-10-16T03:12:41;11.80;99.90
42333;DHT22;27984;51.476;5.702;2022-10-16T03:15:07;11.70;99.90
42333;DHT22;27984;51.476;5.702;2022-10-16T03:17:33;11.70;99.90
42333;DHT22;27984;51.476;5.702;2022-10-16T03:20:02;11.80;99.90
42333;DHT22;27984;51.476;5.702;2022-10-16T03:22:28;11.80;99.90
42333;DHT22;27984;51.476;5.702;2022-10-16T03:24:56;11.80;99.90
42333;DHT22;27984;51.476;5.702;2022-10-16T03:27:22;11.80;99.90
42333;DHT22;27984;51.476;5.702;2022-10-16T03:29:47;11.80;99.90
42333;DHT22;27984;51.476;5.702;2022-10-16T03:32:13;11.80;99.90
42333;DHT22;27984;51.476;5.702;2022-10-16T03:34:39;11.90;99.90
42333;DHT22;27984;51.476;5.702;2022-10-16T03:37:05;11.90;99.90
42333;DHT22;27984;51.476;5.702;2022-10-16T03:39:32;11.90;99.90
42333;DHT22;27984;51.476;5.702;2022-10-16T03:41:58;11.90;99.90
42333;DHT22;27984;51.476;5.702;2022-10-16T03:44:26;11.90;99.90
42333;DHT22;27984;51.476;5.702;2022-10-16T03:46:54;12.00;99.90
42333;DHT22;27984;51.476;5.702;2022-10-16T03:49:22;12.00;99.90
42333;DHT22;27984;51.476;5.702;2022-10-16T03:51:48;12.00;99.90
42333;DHT22;27984;51.476;5.702;2022-10-16T03:54:13;12.10;99.90
42333;DHT22;27984;51.476;5.702;2022-10-16T03:56:41;12.00;99.90
42333;DHT22;27984;51.476;5.702;2022-10-16T03:59:07;12.00;99.90
42333;DHT22;27984;51.476;5.702;2022-10-16T04:01:34;12.00;99.90
42333;DHT22;27984;51.476;5.702;2022-10-16T04:04:00;12.00;99.90
42333;DHT22;27984;51.476;5.702;2022-10-16T04:06:26;12.00;99.90
42333;DHT22;27984;51.476;5.702;2022-10-16T04:08:51;12.00;99.90
42333;DHT22;27984;51.476;5.702;2022-10-16T04:11:17;12.00;99.90
42333;DHT22;27984;51.476;5.702;2022-10-16T04:13:42;12.10;99.90
42333;DHT22;27984;51.476;5.702;2022-10-16T04:16:11;12.10;99.90
42333;DHT22;27984;51.476;5.702;2022-10-16T04:18:37;12.10;99.90
42333;DHT22;27984;51.476;5.702;2022-10-16T04:21:06;12.10;99.90
42333;DHT22;27984;51.476;5.702;2022-10-16T04:23:32;12.10;99.90
42333;DHT22;27984;51.476;5.702;2022-10-16T04:26:01;12.10;99.90
42333;DHT22;27984;51.476;5.702;2022-10-16T04:28:27;12.20;99.90
42333;DHT22;27984;51.476;5.702;2022-10-16T04:30:53;12.20;99.90
42333;DHT22;27984;51.476;5.702;2022-10-16T04:33:18;12.20;99.90
42333;DHT22;27984;51.476;5.702;2022-10-16T04:35:44;12.20;99.90
42333;DHT22;27984;51.476;5.702;2022-10-16T04:38:12;12.20;99.90
42333;DHT22;27984;51.476;5.702;2022-10-16T04:40:38;12.20;99.90
42333;DHT22;27984;51.476;5.702;2022-10-16T04:43:06;12.20;99.90
42333;DHT22;27984;51.476;5.702;2022-10-16T04:45:35;12.20;99.90
42333;DHT22;27984;51.476;5.702;2022-10-16T04:48:03;12.20;99.90
42333;DHT22;27984;51.476;5.702;2022-10-16T04:50:29;12.20;99.90
42333;DHT22;27984;51.476;5.702;2022-10-16T04:52:55;12.30;99.90
42333;DHT22;27984;51.476;5.702;2022-10-16T04:55:25;12.20;99.90
42333;DHT22;27984;51.476;5.702;2022-10-16T04:57:51;12.20;99.90
42333;DHT22;27984;51.476;5.702;2022-10-16T05:00:24;12.30;99.90
42333;DHT22;27984;51.476;5.702;2022-10-16T05:02:50;12.20;99.90
42333;DHT22;27984;51.476;5.702;2022-10-16T05:05:16;12.20;99.90
42333;DHT22;27984;51.476;5.702;2022-10-16T05:07:44;12.20;99.90
42333;DHT22;27984;51.476;5.702;2022-10-16T05:10:10;12.20;99.90
42333;DHT22;27984;51.476;5.702;2022-10-16T05:12:35;12.20;99.90
42333;DHT22;27984;51.476;5.702;2022-10-16T05:15:01;12.10;99.90
42333;DHT22;27984;51.476;5.702;2022-10-16T05:17:32;12.20;99.90
42333;DHT22;27984;51.476;5.702;2022-10-16T05:19:58;12.10;99.90
42333;DHT22;27984;51.476;5.702;2022-10-16T05:22:26;12.10;99.90
42333;DHT22;27984;51.476;5.702;2022-10-16T05:24:52;12.20;99.90
42333;DHT22;27984;51.476;5.702;2022-10-16T05:27:17;12.20;99.90
42333;DHT22;27984;51.476;5.702;2022-10-16T05:29:46;12.20;99.90
42333;DHT22;27984;51.476;5.702;2022-10-16T05:32:16;12.10;99.90
42333;DHT22;27984;51.476;5.702;2022-10-16T05:34:42;12.00;99.90
42333;DHT22;27984;51.476;5.702;2022-10-16T05:37:07;12.00;99.90
42333;DHT22;27984;51.476;5.702;2022-10-16T05:39:37;12.10;99.90
42333;DHT22;27984;51.476;5.702;2022-10-16T05:42:05;12.10;99.90
42333;DHT22;27984;51.476;5.702;2022-10-16T05:44:33;12.00;99.90
42333;DHT22;27984;51.476;5.702;2022-10-16T05:46:59;12.00;99.90
42333;DHT22;27984;51.476;5.702;2022-10-16T05:49:25;12.00;99.90
42333;DHT22;27984;51.476;5.702;2022-10-16T05:51:50;11.90;99.90
42333;DHT22;27984;51.476;5.702;2022-10-16T05:54:18;11.90;99.90
42333;DHT22;27984;51.476;5.702;2022-10-16T05:56:49;11.90;99.90
42333;DHT22;27984;51.476;5.702;2022-10-16T05:59:17;11.90;99.90
42333;DHT22;27984;51.476;5.702;2022-10-16T06:01:43;11.90;99.90
42333;DHT22;27984;51.476;5.702;2022-10-16T06:04:09;11.90;99.90
42333;DHT22;27984;51.476;5.702;2022-10-16T06:06:37;11.90;99.90
42333;DHT22;27984;51.476;5.702;2022-10-16T06:09:08;11.90;99.90
42333;DHT22;27984;51.476;5.702;2022-10-16T06:11:37;11.90;99.90
42333;DHT22;27984;51.476;5.702;2022-10-16T06:14:02;11.90;99.90
42333;DHT22;27984;51.476;5.702;2022-10-16T06:16:35;11.80;99.90
42333;DHT22;27984;51.476;5.702;2022-10-16T06:19:01;11.90;99.90
42333;DHT22;27984;51.476;5.702;2022-10-16T06:21:28;11.90;99.90
42333;DHT22;27984;51.476;5.702;2022-10-16T06:23:55;11.80;99.90
42333;DHT22;27984;51.476;5.702;2022-10-16T06:26:27;11.90;99.90
42333;DHT22;27984;51.476;5.702;2022-10-16T06:28:59;11.90;99.90
42333;DHT22;27984;51.476;5.702;2022-10-16T06:31:25;11.90;99.90
42333;DHT22;27984;51.476;5.702;2022-10-16T06:33:59;11.90;99.90
42333;DHT22;27984;51.476;5.702;2022-10-16T06:36:27;11.90;99.90
42333;DHT22;27984;51.476;5.702;2022-10-16T06:38:55;11.90;99.90
42333;DHT22;27984;51.476;5.702;2022-10-16T06:41:22;12.00;99.90
42333;DHT22;27984;51.476;5.702;2022-10-16T06:43:51;12.10;99.90
42333;DHT22;27984;51.476;5.702;2022-10-16T06:46:20;12.10;99.90
42333;DHT22;27984;51.476;5.702;2022-10-16T06:48:57;12.00;99.90
42333;DHT22;27984;51.476;5.702;2022-10-16T06:51:25;12.00;99.90
42333;DHT22;27984;51.476;5.702;2022-10-16T06:53:56;12.00;99.90
42333;DHT22;27984;51.476;5.702;2022-10-16T06:56:30;12.10;99.90
42333;DHT22;27984;51.476;5.702;2022-10-16T06:58:59;12.00;99.90
42333;DHT22;27984;51.476;5.702;2022-10-16T07:01:28;12.10;99.90
42333;DHT22;27984;51.476;5.702;2022-10-16T07:03:54;12.10;99.90
42333;DHT22;27984;51.476;5.702;2022-10-16T07:06:22;12.10;99.90
42333;DHT22;27984;51.476;5.702;2022-10-16T07:08:48;12.20;99.90
42333;DHT22;27984;51.476;5.702;2022-10-16T07:11:17;12.20;99.90
42333;DHT22;27984;51.476;5.702;2022-10-16T07:13:49;12.30;99.90
42333;DHT22;27984;51.476;5.702;2022-10-16T07:16:18;12.40;99.90
42333;DHT22;27984;51.476;5.702;2022-10-16T07:18:44;12.50;99.90
42333;DHT22;27984;51.476;5.702;2022-10-16T07:21:19;12.60;99.90
42333;DHT22;27984;51.476;5.702;2022-10-16T07:23:59;12.80;99.90
42333;DHT22;27984;51.476;5.702;2022-10-16T07:26:28;13.10;99.90
42333;DHT22;27984;51.476;5.702;2022-10-16T07:28:59;14.20;99.90
42333;DHT22;27984;51.476;5.702;2022-10-16T07:31:26;15.70;99.90
42333;DHT22;27984;51.476;5.702;2022-10-16T07:33:52;17.00;99.90
42333;DHT22;27984;51.476;5.702;2022-10-16T07:36:19;17.60;99.90
42333;DHT22;27984;51.476;5.702;2022-10-16T07:38:48;18.00;99.90
42333;DHT22;27984;51.476;5.702;2022-10-16T07:41:16;18.10;99.90
42333;DHT22;27984;51.476;5.702;2022-10-16T07:43:47;18.30;99.90
42333;DHT22;27984;51.476;5.702;2022-10-16T07:46:13;17.90;99.90
42333;DHT22;27984;51.476;5.702;2022-10-16T07:48:43;17.00;99.90
42333;DHT22;27984;51.476;5.702;2022-10-16T07:51:15;16.30;99.90
42333;DHT22;27984;51.476;5.702;2022-10-16T07:53:44;16.30;99.90
42333;DHT22;27984;51.476;5.702;2022-10-16T07:56:12;16.60;99.90
42333;DHT22;27984;51.476;5.702;2022-10-16T07:58:41;16.30;99.90
42333;DHT22;27984;51.476;5.702;2022-10-16T08:01:10;16.10;99.90
42333;DHT22;27984;51.476;5.702;2022-10-16T08:03:36;16.00;99.90
42333;DHT22;27984;51.476;5.702;2022-10-16T08:06:05;16.00;99.90
42333;DHT22;27984;51.476;5.702;2022-10-16T08:08:34;16.30;99.90
42333;DHT22;27984;51.476;5.702;2022-10-16T08:11:00;17.00;99.90
42333;DHT22;27984;51.476;5.702;2022-10-16T08:13:32;17.20;99.90
42333;DHT22;27984;51.476;5.702;2022-10-16T08:15:57;17.20;99.90
42333;DHT22;27984;51.476;5.702;2022-10-16T08:18:23;16.80;99.90
42333;DHT22;27984;51.476;5.702;2022-10-16T08:20:55;16.10;99.90
42333;DHT22;27984;51.476;5.702;2022-10-16T08:23:22;15.90;99.90
42333;DHT22;27984;51.476;5.702;2022-10-16T08:25:52;15.80;99.90
42333;DHT22;27984;51.476;5.702;2022-10-16T08:28:19;16.10;99.90
42333;DHT22;27984;51.476;5.702;2022-10-16T08:30:44;16.20;99.90
42333;DHT22;27984;51.476;5.702;2022-10-16T08:33:10;16.20;99.90
42333;DHT22;27984;51.476;5.702;2022-10-16T08:35:36;16.20;99.90
42333;DHT22;27984;51.476;5.702;2022-10-16T08:38:06;16.10;99.90
42333;DHT22;27984;51.476;5.702;2022-10-16T08:40:37;16.00;99.90
42333;DHT22;27984;51.476;5.702;2022-10-16T08:54:05;16.40;99.90
42333;DHT22;27984;51.476;5.702;2022-10-16T08:56:30;16.40;99.90
42333;DHT22;27984;51.476;5.702;2022-10-16T08:58:59;16.50;99.90
42333;DHT22;27984;51.476;5.702;2022-10-16T09:01:37;17.00;99.90
42333;DHT22;27984;51.476;5.702;2022-10-16T09:04:13;17.80;99.90
42333;DHT22;27984;51.476;5.702;2022-10-16T09:07:04;18.90;99.90
42333;DHT22;27984;51.476;5.702;2022-10-16T09:10:15;20.00;99.90
42333;DHT22;27984;51.476;5.702;2022-10-16T09:15:39;20.80;99.90
42333;DHT22;27984;51.476;5.702;2022-10-16T09:18:18;21.10;99.90
42333;DHT22;27984;51.476;5.702;2022-10-16T09:23:40;22.70;99.90
42333;DHT22;27984;51.476;5.702;2022-10-16T09:26:10;23.40;99.90
42333;DHT22;27984;51.476;5.702;2022-10-16T09:28:36;23.40;99.90
42333;DHT22;27984;51.476;5.702;2022-10-16T09:31:02;24.10;99.90
42333;DHT22;27984;51.476;5.702;2022-10-16T09:33:36;23.70;99.90
42333;DHT22;27984;51.476;5.702;2022-10-16T09:36:03;23.90;99.90
42333;DHT22;27984;51.476;5.702;2022-10-16T09:38:34;24.30;99.90
42333;DHT22;27984;51.476;5.702;2022-10-16T09:41:13;24.30;99.90
42333;DHT22;27984;51.476;5.702;2022-10-16T09:46:33;24.50;99.90
42333;DHT22;27984;51.476;5.702;2022-10-16T09:49:01;24.90;99.90
42333;DHT22;27984;51.476;5.702;2022-10-16T09:51:29;25.20;99.90
42333;DHT22;27984;51.476;5.702;2022-10-16T09:54:00;25.50;99.90
42333;DHT22;27984;51.476;5.702;2022-10-16T09:56:29;24.80;99.90
42333;DHT22;27984;51.476;5.702;2022-10-16T09:59:00;24.50;99.90
42333;DHT22;27984;51.476;5.702;2022-10-16T10:01:47;24.80;99.90
42333;DHT22;27984;51.476;5.702;2022-10-16T10:04:16;24.20;99.90
42333;DHT22;27984;51.476;5.702;2022-10-16T10:06:50;23.00;99.90
42333;DHT22;27984;51.476;5.702;2022-10-16T10:09:28;22.50;99.90
42333;DHT22;27984;51.476;5.702;2022-10-16T10:12:02;22.70;99.90
42333;DHT22;27984;51.476;5.702;2022-10-16T10:14:39;23.20;99.90
42333;DHT22;27984;51.476;5.702;2022-10-16T10:30:23;23.40;99.50
42333;DHT22;27984;51.476;5.702;2022-10-16T10:36:05;22.50;99.90
42333;DHT22;27984;51.476;5.702;2022-10-16T10:38:52;23.90;99.90
42333;DHT22;27984;51.476;5.702;2022-10-16T10:46:51;25.10;99.10
42333;DHT22;27984;51.476;5.702;2022-10-16T10:54:41;25.70;97.00
42333;DHT22;27984;51.476;5.702;2022-10-16T11:08:10;22.80;99.90
42333;DHT22;27984;51.476;5.702;2022-10-16T11:10:58;22.40;99.90
42333;DHT22;27984;51.476;5.702;2022-10-16T11:13:30;21.40;99.90
42333;DHT22;27984;51.476;5.702;2022-10-16T11:16:26;21.70;99.90
42333;DHT22;27984;51.476;5.702;2022-10-16T11:21:54;20.30;99.90
42333;DHT22;27984;51.476;5.702;2022-10-16T11:24:53;20.50;99.90
42333;DHT22;27984;51.476;5.702;2022-10-16T11:30:12;20.90;99.90
42333;DHT22;27984;51.476;5.702;2022-10-16T11:38:31;22.00;99.90
42333;DHT22;27984;51.476;5.702;2022-10-16T11:43:56;23.00;99.90
42333;DHT22;27984;51.476;5.702;2022-10-16T11:46:31;24.30;99.90
42333;DHT22;27984;51.476;5.702;2022-10-16T11:49:07;24.50;98.20
42333;DHT22;27984;51.476;5.702;2022-10-16T11:51:40;25.00;98.50
42333;DHT22;27984;51.476;5.702;2022-10-16T11:54:22;25.80;98.20
42333;DHT22;27984;51.476;5.702;2022-10-16T11:56:58;26.00;96.30
42333;DHT22;27984;51.476;5.702;2022-10-16T11:59:31;26.60;96.30
42333;DHT22;27984;51.476;5.702;2022-10-16T12:05:12;26.90;94.10
42333;DHT22;27984;51.476;5.702;2022-10-16T12:07:51;27.20;94.40
42333;DHT22;27984;51.476;5.702;2022-10-16T12:10:28;26.90;92.60
42333;DHT22;27984;51.476;5.702;2022-10-16T12:12:57;27.20;92.70
42333;DHT22;27984;51.476;5.702;2022-10-16T12:15:30;27.40;92.30
42333;DHT22;27984;51.476;5.702;2022-10-16T12:17:56;26.60;92.60
42333;DHT22;27984;51.476;5.702;2022-10-16T12:20:40;26.70;92.00
42333;DHT22;27984;51.476;5.702;2022-10-16T12:23:20;26.90;92.80
42333;DHT22;27984;51.476;5.702;2022-10-16T12:25:57;26.90;93.30
42333;DHT22;27984;51.476;5.702;2022-10-16T12:28:31;26.50;93.00
42333;DHT22;27984;51.476;5.702;2022-10-16T12:31:06;26.60;92.40
42333;DHT22;27984;51.476;5.702;2022-10-16T12:33:52;26.80;93.20
42333;DHT22;27984;51.476;5.702;2022-10-16T12:36:33;26.80;92.40
42333;DHT22;27984;51.476;5.702;2022-10-16T12:39:05;26.90;93.10
42333;DHT22;27984;51.476;5.702;2022-10-16T12:41:33;26.40;92.80
42333;DHT22;27984;51.476;5.702;2022-10-16T12:44:00;26.10;94.10
42333;DHT22;27984;51.476;5.702;2022-10-16T12:51:40;24.50;96.00
42333;DHT22;27984;51.476;5.702;2022-10-16T12:54:21;25.20;95.90
42333;DHT22;27984;51.476;5.702;2022-10-16T13:00:10;24.30;95.90
42333;DHT22;27984;51.476;5.702;2022-10-16T13:03:45;23.50;97.30
42333;DHT22;27984;51.476;5.702;2022-10-16T13:10:56;22.50;98.60
42333;DHT22;27984;51.476;5.702;2022-10-16T13:18:50;23.60;97.80
42333;DHT22;27984;51.476;5.702;2022-10-16T13:27:07;24.40;96.90
42333;DHT22;27984;51.476;5.702;2022-10-16T13:29:34;23.80;97.10
42333;DHT22;27984;51.476;5.702;2022-10-16T13:32:01;23.90;97.50
42333;DHT22;27984;51.476;5.702;2022-10-16T13:34:32;24.10;97.60
42333;DHT22;27984;51.476;5.702;2022-10-16T13:36:58;23.60;97.10
42333;DHT22;27984;51.476;5.702;2022-10-16T13:39:30;23.60;97.10
42333;DHT22;27984;51.476;5.702;2022-10-16T13:42:14;23.40;97.30
42333;DHT22;27984;51.476;5.702;2022-10-16T13:44:44;22.70;97.30
42333;DHT22;27984;51.476;5.702;2022-10-16T13:47:20;22.20;98.40
42333;DHT22;27984;51.476;5.702;2022-10-16T13:49:59;21.70;99.40
42333;DHT22;27984;51.476;5.702;2022-10-16T13:52:25;21.70;99.50
42333;DHT22;27984;51.476;5.702;2022-10-16T13:54:56;21.50;99.20
42333;DHT22;27984;51.476;5.702;2022-10-16T13:57:24;21.40;99.80
42333;DHT22;27984;51.476;5.702;2022-10-16T13:59:50;21.10;99.90
42333;DHT22;27984;51.476;5.702;2022-10-16T14:02:34;21.10;99.90
42333;DHT22;27984;51.476;5.702;2022-10-16T14:05:01;21.00;99.90
42333;DHT22;27984;51.476;5.702;2022-10-16T14:07:30;20.70;99.90
42333;DHT22;27984;51.476;5.702;2022-10-16T14:10:05;20.60;99.90
42333;DHT22;27984;51.476;5.702;2022-10-16T14:12:33;20.60;99.90
42333;DHT22;27984;51.476;5.702;2022-10-16T14:15:03;20.50;99.90
42333;DHT22;27984;51.476;5.702;2022-10-16T14:17:31;20.50;99.90
42333;DHT22;27984;51.476;5.702;2022-10-16T14:19:59;20.50;99.90
42333;DHT22;27984;51.476;5.702;2022-10-16T14:22:34;20.40;99.90
42333;DHT22;27984;51.476;5.702;2022-10-16T14:25:01;20.30;99.90
42333;DHT22;27984;51.476;5.702;2022-10-16T14:27:35;20.20;99.90
42333;DHT22;27984;51.476;5.702;2022-10-16T14:30:22;20.10;99.90
42333;DHT22;27984;51.476;5.702;2022-10-16T14:35:32;20.10;99.90
42333;DHT22;27984;51.476;5.702;2022-10-16T14:38:02;20.20;99.90
42333;DHT22;27984;51.476;5.702;2022-10-16T14:40:37;20.00;99.90
42333;DHT22;27984;51.476;5.702;2022-10-16T14:43:05;20.00;99.90
42333;DHT22;27984;51.476;5.702;2022-10-16T14:45:35;19.90;99.90
42333;DHT22;27984;51.476;5.702;2022-10-16T14:48:12;19.90;99.90
42333;DHT22;27984;51.476;5.702;2022-10-16T14:50:42;19.90;99.90
42333;DHT22;27984;51.476;5.702;2022-10-16T14:53:14;19.90;99.90
42333;DHT22;27984;51.476;5.702;2022-10-16T14:55:41;20.00;99.90
42333;DHT22;27984;51.476;5.702;2022-10-16T14:58:22;20.00;99.90
42333;DHT22;27984;51.476;5.702;2022-10-16T15:00:55;20.10;99.90
42333;DHT22;27984;51.476;5.702;2022-10-16T15:03:20;20.30;99.90
42333;DHT22;27984;51.476;5.702;2022-10-16T15:05:48;20.10;99.90
42333;DHT22;27984;51.476;5.702;2022-10-16T15:08:19;19.80;99.90
42333;DHT22;27984;51.476;5.702;2022-10-16T15:10:47;19.60;99.90
42333;DHT22;27984;51.476;5.702;2022-10-16T15:13:15;19.60;99.90
42333;DHT22;27984;51.476;5.702;2022-10-16T15:15:53;19.60;99.90
42333;DHT22;27984;51.476;5.702;2022-10-16T15:18:20;19.70;99.90
42333;DHT22;27984;51.476;5.702;2022-10-16T15:20:50;19.80;99.90
42333;DHT22;27984;51.476;5.702;2022-10-16T15:23:19;19.70;99.90
42333;DHT22;27984;51.476;5.702;2022-10-16T15:28:15;19.40;99.90
42333;DHT22;27984;51.476;5.702;2022-10-16T15:30:42;19.40;99.90
42333;DHT22;27984;51.476;5.702;2022-10-16T15:33:15;19.40;99.90
42333;DHT22;27984;51.476;5.702;2022-10-16T15:35:50;19.30;99.90
42333;DHT22;27984;51.476;5.702;2022-10-16T15:38:18;19.30;99.90
42333;DHT22;27984;51.476;5.702;2022-10-16T15:40:43;19.10;99.90
42333;DHT22;27984;51.476;5.702;2022-10-16T15:43:09;19.00;99.90
42333;DHT22;27984;51.476;5.702;2022-10-16T15:45:35;19.10;99.90
42333;DHT22;27984;51.476;5.702;2022-10-16T15:48:04;19.10;99.90
42333;DHT22;27984;51.476;5.702;2022-10-16T15:50:30;19.00;99.90
42333;DHT22;27984;51.476;5.702;2022-10-16T15:52:56;18.90;99.90
42333;DHT22;27984;51.476;5.702;2022-10-16T15:55:22;18.80;99.90
42333;DHT22;27984;51.476;5.702;2022-10-16T15:57:48;18.70;99.90
42333;DHT22;27984;51.476;5.702;2022-10-16T16:00:16;18.60;99.90
42333;DHT22;27984;51.476;5.702;2022-10-16T16:02:49;18.50;99.90
42333;DHT22;27984;51.476;5.702;2022-10-16T16:05:15;18.50;99.90
42333;DHT22;27984;51.476;5.702;2022-10-16T16:07:40;18.50;99.90
42333;DHT22;27984;51.476;5.702;2022-10-16T16:10:08;18.40;99.90
42333;DHT22;27984;51.476;5.702;2022-10-16T16:12:35;18.40;99.90
42333;DHT22;27984;51.476;5.702;2022-10-16T16:15:05;18.30;99.90
42333;DHT22;27984;51.476;5.702;2022-10-16T16:17:34;18.20;99.90
42333;DHT22;27984;51.476;5.702;2022-10-16T16:20:03;18.00;99.90
42333;DHT22;27984;51.476;5.702;2022-10-16T16:22:30;17.90;99.90
42333;DHT22;27984;51.476;5.702;2022-10-16T16:24:55;17.80;99.90
42333;DHT22;27984;51.476;5.702;2022-10-16T16:27:21;17.70;99.90
42333;DHT22;27984;51.476;5.702;2022-10-16T16:29:47;17.60;99.90
42333;DHT22;27984;51.476;5.702;2022-10-16T16:32:13;17.60;99.90
42333;DHT22;27984;51.476;5.702;2022-10-16T16:34:38;17.60;99.90
42333;DHT22;27984;51.476;5.702;2022-10-16T16:37:04;17.50;99.90
42333;DHT22;27984;51.476;5.702;2022-10-16T16:39:30;17.40;99.90
42333;DHT22;27984;51.476;5.702;2022-10-16T16:41:56;17.30;99.90
42333;DHT22;27984;51.476;5.702;2022-10-16T16:44:24;17.20;99.90
42333;DHT22;27984;51.476;5.702;2022-10-16T16:46:52;17.20;99.90
42333;DHT22;27984;51.476;5.702;2022-10-16T16:49:18;17.10;99.90
42333;DHT22;27984;51.476;5.702;2022-10-16T16:51:43;17.10;99.90
42333;DHT22;27984;51.476;5.702;2022-10-16T16:54:12;17.00;99.90
42333;DHT22;27984;51.476;5.702;2022-10-16T16:56:42;17.00;99.90
42333;DHT22;27984;51.476;5.702;2022-10-16T16:59:17;17.00;99.90
42333;DHT22;27984;51.476;5.702;2022-10-16T17:01:45;17.00;99.90
42333;DHT22;27984;51.476;5.702;2022-10-16T17:04:11;17.00;99.90
42333;DHT22;27984;51.476;5.702;2022-10-16T17:06:38;17.00;99.90
42333;DHT22;27984;51.476;5.702;2022-10-16T17:09:07;17.00;99.90
42333;DHT22;27984;51.476;5.702;2022-10-16T17:11:34;16.90;99.90
42333;DHT22;27984;51.476;5.702;2022-10-16T17:14:01;16.90;99.90
42333;DHT22;27984;51.476;5.702;2022-10-16T17:16:31;16.90;99.90
42333;DHT22;27984;51.476;5.702;2022-10-16T17:19:01;16.90;99.90
42333;DHT22;27984;51.476;5.702;2022-10-16T17:21:27;16.80;99.90
42333;DHT22;27984;51.476;5.702;2022-10-16T17:23:55;16.80;99.90
42333;DHT22;27984;51.476;5.702;2022-10-16T17:26:23;16.80;99.90
42333;DHT22;27984;51.476;5.702;2022-10-16T17:28:54;16.80;99.90
42333;DHT22;27984;51.476;5.702;2022-10-16T17:31:23;16.80;99.90
42333;DHT22;27984;51.476;5.702;2022-10-16T17:33:50;16.70;99.90
42333;DHT22;27984;51.476;5.702;2022-10-16T17:36:17;16.70;99.90
42333;DHT22;27984;51.476;5.702;2022-10-16T17:38:43;16.60;99.90
42333;DHT22;27984;51.476;5.702;2022-10-16T17:41:13;16.60;99.90
42333;DHT22;27984;51.476;5.702;2022-10-16T17:43:39;16.60;99.90